Apache Creek, New Mexico
Current Conditions -  °F | °C
As of 5:15 AM on Monday 24 Nov 2014 (Local Time) from KJTC Reporting Station
Clear Clear  
Wind Chill:   Ceiling: Unl
Heat Index: 16°   Visibility: 10mi
Dew Point: -2°   Wind: 6mph
Humidity: 45%   Direction: 230°SW
Pressure: 30.21"   Gusts: NA
Location:  33.6665°N, 108.765°W
Report Text: KJTC 241215Z AUTO 23005KT 10SM CLR M09/M19 A3021 RMK AO2
Loading
Personal Weather Stations






























Interactive Weather Map New forecast layout! Learn more

10-Day Weather Forecast

Advertisements
Track Severe Weather on mobile